Nearby METAR Reports

 

KC09 - Morris-Washburn, Illinois, USA
Distance from station: NW 9mi, 14km
Updated: Wed, 20-Sep-2017 6:35pm CDT
Clear
Clear
 Wind from SSE
Wind: SSE 7 mph , 11 km/h
Temperature: 82°F , 28°C
Heat Index: 85°F , 29°C
Dew Point: 68°F , 20°C
Humidity: 62%
Barometer: 29.84 inHg , 1010.5 hPa
Clouds: Clear
Visibility: 10 miles , 16 km
2017/09/20 23:35 KC09 202335Z AUTO 15006KT 10SM CLR 28/20 A2984 RMK AO2 T02830200
KJOT - Joliet, Illinois, USA
Distance from station: NNE 13mi, 22km
Updated: Wed, 20-Sep-2017 6:35pm CDT
Clear
Clear
 Wind from SSE
Wind: SSE 6 mph , 9 km/h
Temperature: 88°F , 31°C
Heat Index: 93°F , 34°C
Dew Point: 70°F , 21°C
Humidity: 55%
Barometer: 29.86 inHg , 1011.2 hPa
Clouds: Clear
Visibility: 10 miles , 16 km
2017/09/20 23:35 KJOT 202335Z AUTO 16005KT 10SM CLR 31/21 A2986 RMK AO2 T03090205
 
KLOT - Romeoville/Chi, Illinois, USA
Distance from station: NNE 21mi, 33km
Updated: Wed, 20-Sep-2017 6:35pm CDT
Clear
Clear
 Wind from SSE
Wind: SSE 9 mph , 15 km/h
Temperature: 86°F , 30°C
Heat Index: 89°F , 32°C
Dew Point: 68°F , 20°C
Humidity: 55%
Barometer: 29.86 inHg , 1011.2 hPa
Clouds: Clear
Visibility: 10 miles , 16 km
2017/09/20 23:35 KLOT 202335Z AUTO 16008KT 10SM CLR 30/20 A2986 RMK AO2 T02950196
KIKK - Kankakee, Illinois, USA
Distance from station: SE 30mi, 48km
Updated: Wed, 20-Sep-2017 6:35pm CDT
Clear
Clear
 Wind from SSE
Wind: SSE 7 mph , 11 km/h
Temperature: 86°F , 30°C
Heat Index: 89°F , 32°C
Dew Point: 68°F , 20°C
Humidity: 55%
Barometer: 29.89 inHg , 1012.2 hPa
Clouds: Clear
Visibility: 10 miles , 16 km
2017/09/20 23:35 KIKK 202335Z AUTO 16006KT 10SM CLR 30/20 A2989 RMK AO2 T02960200
 
KARR - Chicago/Aurora, Illinois, USA
Distance from station: NNW 31mi, 50km
Updated: Wed, 20-Sep-2017 5:52pm CDT
Clear
Clear
 Wind from S
Wind: S 12 mph , 19 km/h
Temperature: 88°F , 31°C
Heat Index: 92°F , 33°C
Dew Point: 68°F , 20°C
Humidity: 52%
Barometer: 29.85 inHg , 1010.8 hPa
Clouds: Clear
Visibility: 10 miles , 16 km
2017/09/20 22:52 KARR 202252Z 17010KT 10SM CLR 31/20 A2985 RMK AO2 SLP102 T03110200
KPNT - Pontiac, Illinois, USA
Distance from station: SSW 34mi, 54km
Updated: Wed, 20-Sep-2017 6:35pm CDT
Clear
Clear
 Wind from S
Wind: S 7 mph , 11 km/h
Temperature: 88°F , 31°C
Heat Index: 95°F , 35°C
Dew Point: 72°F , 22°C
Humidity: 59%
Barometer: 29.87 inHg , 1011.5 hPa
Clouds: Clear
Visibility: 10 miles , 16 km
2017/09/20 23:35 KPNT 202335Z AUTO 17006KT 10SM CLR 31/22 A2987 RMK AO2 T03060215
 
KDPA - Chicago/Dupage, Illinois, USA
Distance from station: N 40mi, 64km
Updated: Wed, 20-Sep-2017 5:52pm CDT
Clear
Clear
 Wind from S
Wind: S 15 mph , 24 km/h
Temperature: 88°F , 31°C
Heat Index: 91°F , 33°C
Dew Point: 66°F , 19°C
Humidity: 49%
Barometer: 29.84 inHg , 1010.5 hPa
Clouds: Clear
Visibility: 8 miles , 13 km
2017/09/20 22:52 KDPA 202252Z 18013KT 8SM CLR 31/19 A2984 RMK AO2 SLP101 T03110194
KIGQ - Chicago/Lansing, Illinois, USA
Distance from station: ENE 42mi, 67km
Updated: Wed, 20-Sep-2017 6:35pm CDT
Clear
Clear
 Wind from S
Wind: S 9 mph , 15 km/h
Temperature: 84°F , 29°C
Heat Index: 88°F , 31°C
Dew Point: 70°F , 21°C
Humidity: 62%
Barometer: 29.88 inHg , 1011.9 hPa
Clouds: Clear
Visibility: 10 miles , 16 km
2017/09/20 23:35 KIGQ 202335Z AUTO 18008KT 10SM CLR 29/21 A2988 RMK AO2 T02900212
 
KMDW - Chicago, Illinois, USA
Distance from station: NE 42mi, 67km
Updated: Wed, 20-Sep-2017 5:53pm CDT
Few Clouds
Few Clouds
 Wind from SSW
Wind: SSW 15 mph , 24 km/h, Gust: 25 mph , 41 km/h
Temperature: 91°F , 33°C
Heat Index: 94°F , 34°C
Dew Point: 66°F , 19°C
Humidity: 44%
Barometer: 29.86 inHg , 1011.2 hPa
Clouds: Few Clouds
Visibility: 10 miles , 16 km
Cloud details: Few Clouds 25000 ft
2017/09/20 22:53 KMDW 202253Z 20013G22KT 10SM FEW250 33/19 A2986 RMK AO2 SLP099 T03280189
KVYS - Peru, Illinois, USA
Distance from station: W 44mi, 71km
Updated: Wed, 20-Sep-2017 6:35pm CDT
Clear
Clear
 Wind from S
Wind: S 9 mph , 15 km/h
Temperature: 84°F , 29°C
Heat Index: 85°F , 29°C
Dew Point: 64°F , 18°C
Humidity: 51%
Barometer: 29.84 inHg , 1010.5 hPa
Clouds: Clear
Visibility: 10 miles , 16 km
2017/09/20 23:35 KVYS 202335Z AUTO 18008KT 10SM CLR 29/18 A2984 RMK AO2 T02940183
 
KDKB - De Kalb, Illinois, USA
Distance from station: NNW 46mi, 74km
Updated: Wed, 20-Sep-2017 6:35pm CDT
Clear
Clear
 Wind from S
Wind: S 10 mph , 17 km/h
Temperature: 84°F , 29°C
Heat Index: 87°F , 31°C
Dew Point: 68°F , 20°C
Humidity: 58%
Barometer: 29.85 inHg , 1010.8 hPa
Clouds: Clear
Visibility: 10 miles , 16 km
2017/09/20 23:35 KDKB 202335Z AUTO 17009KT 10SM CLR 29/20 A2985 RMK AO2 T02880198
KORD - Chicago O'hare, Illinois, USA
Distance from station: NNE 48mi, 78km
Updated: Wed, 20-Sep-2017 5:51pm CDT
Clear
Clear
 Wind from S
Wind: S 23 mph , 37 km/h, Gust: 26 mph , 43 km/h
Temperature: 90°F , 32°C
Heat Index: 92°F , 33°C
Dew Point: 64°F , 18°C
Humidity: 43%
Barometer: 29.85 inHg , 1010.8 hPa
Clouds: Clear
Visibility: 10 miles , 16 km
2017/09/20 22:51 KORD 202251Z 18020G23KT 10SM CLR 32/18 A2985 RMK AO2 PK WND 17026/2234 SLP102 T03220183
 
KGYY - Gary Regional, Indiana, USA
Distance from station: ENE 49mi, 80km
Updated: Wed, 20-Sep-2017 5:45pm CDT
Clear
Clear
 Wind from S
Wind: S 8 mph , 13 km/h, Gust: 20 mph , 31 km/h
Temperature: 90°F , 32°C
Heat Index: 92°F , 33°C
Dew Point: 64°F , 18°C
Humidity: 43%
Barometer: 29.88 inHg , 1011.9 hPa
Clouds: Clear
Visibility: 10 miles , 16 km
2017/09/20 22:45 KGYY 202245Z 17007G17KT 10SM SKC 32/18 A2988